sensor_id;sensor_type;location;lat;lon;timestamp;pressure;altitude;pressure_sealevel;temperature;humidity
37298;BME280;30517;51.932;4.278;2022-09-09T00:02:19;100639.13;;;20.41;51.03
37298;BME280;30517;51.932;4.278;2022-09-09T00:07:51;100695.03;;;20.69;51.17
37298;BME280;30517;51.932;4.278;2022-09-09T00:10:36;100693.22;;;20.70;51.18
37298;BME280;30517;51.932;4.278;2022-09-09T00:13:25;100687.28;;;20.63;51.20
37298;BME280;30517;51.932;4.278;2022-09-09T00:16:19;100687.00;;;20.69;51.37
37298;BME280;30517;51.932;4.278;2022-09-09T00:19:41;100688.06;;;20.65;51.32
37298;BME280;30517;51.932;4.278;2022-09-09T00:22:28;100685.38;;;20.65;51.39
37298;BME280;30517;51.932;4.278;2022-09-09T00:25:14;100689.16;;;20.61;51.28
37298;BME280;30517;51.932;4.278;2022-09-09T00:28:01;100682.84;;;20.62;51.23
37298;BME280;30517;51.932;4.278;2022-09-09T00:30:42;100680.38;;;20.58;51.25
37298;BME280;30517;51.932;4.278;2022-09-09T00:33:24;100679.66;;;20.54;51.22
37298;BME280;30517;51.932;4.278;2022-09-09T00:36:11;100678.59;;;20.58;51.40
37298;BME280;30517;51.932;4.278;2022-09-09T00:38:57;100683.06;;;20.58;51.30
37298;BME280;30517;51.932;4.278;2022-09-09T00:42:08;100660.66;;;20.40;51.25
37298;BME280;30517;51.932;4.278;2022-09-09T00:47:54;100676.06;;;20.55;51.09
37298;BME280;30517;51.932;4.278;2022-09-09T00:50:53;100668.94;;;20.54;51.09
37298;BME280;30517;51.932;4.278;2022-09-09T00:57:06;100668.19;;;20.50;51.19
37298;BME280;30517;51.932;4.278;2022-09-09T01:00:16;100673.56;;;20.50;51.00
37298;BME280;30517;51.932;4.278;2022-09-09T01:03:19;100669.06;;;20.51;50.90
37298;BME280;30517;51.932;4.278;2022-09-09T01:09:24;100660.22;;;20.49;51.11
37298;BME280;30517;51.932;4.278;2022-09-09T01:12:14;100647.31;;;20.38;50.99
37298;BME280;30517;51.932;4.278;2022-09-09T01:15:14;100662.47;;;20.39;51.16
37298;BME280;30517;51.932;4.278;2022-09-09T01:18:10;100651.59;;;20.42;51.20
37298;BME280;30517;51.932;4.278;2022-09-09T01:26:43;100644.28;;;20.46;50.80
37298;BME280;30517;51.932;4.278;2022-09-09T01:29:24;100639.22;;;20.40;51.37
37298;BME280;30517;51.932;4.278;2022-09-09T01:32:44;100632.25;;;20.36;51.27
37298;BME280;30517;51.932;4.278;2022-09-09T01:38:12;100598.41;;;20.14;51.11
37298;BME280;30517;51.932;4.278;2022-09-09T01:40:54;100626.19;;;20.32;51.20
37298;BME280;30517;51.932;4.278;2022-09-09T01:43:35;100627.13;;;20.31;51.45
37298;BME280;30517;51.932;4.278;2022-09-09T01:46:16;100587.19;;;20.06;51.07
37298;BME280;30517;51.932;4.278;2022-09-09T01:48:58;100628.78;;;20.33;51.30
37298;BME280;30517;51.932;4.278;2022-09-09T01:51:41;100632.53;;;20.29;51.18
37298;BME280;30517;51.932;4.278;2022-09-09T01:54:26;100621.97;;;20.26;51.21
37298;BME280;30517;51.932;4.278;2022-09-09T01:57:18;100609.78;;;20.19;51.13
37298;BME280;30517;51.932;4.278;2022-09-09T02:00:05;100633.69;;;20.24;51.22
37298;BME280;30517;51.932;4.278;2022-09-09T02:03:08;100628.19;;;20.27;50.97
37298;BME280;30517;51.932;4.278;2022-09-09T02:08:52;100618.34;;;20.27;51.25
37298;BME280;30517;51.932;4.278;2022-09-09T02:11:34;100608.78;;;20.22;51.05
37298;BME280;30517;51.932;4.278;2022-09-09T02:14:18;100611.69;;;20.17;51.41
37298;BME280;30517;51.932;4.278;2022-09-09T02:17:09;100561.28;;;19.87;51.24
37298;BME280;30517;51.932;4.278;2022-09-09T02:19:56;100571.03;;;19.88;51.52
37298;BME280;30517;51.932;4.278;2022-09-09T02:22:42;100596.63;;;20.15;51.58
37298;BME280;30517;51.932;4.278;2022-09-09T02:25:27;100538.31;;;19.82;51.37
37298;BME280;30517;51.932;4.278;2022-09-09T02:28:11;100615.28;;;20.16;51.38
37298;BME280;30517;51.932;4.278;2022-09-09T02:30:53;100594.06;;;20.11;51.66
37298;BME280;30517;51.932;4.278;2022-09-09T02:33:43;100578.06;;;19.91;51.65
37298;BME280;30517;51.932;4.278;2022-09-09T02:36:29;100603.25;;;20.06;51.60
37298;BME280;30517;51.932;4.278;2022-09-09T02:39:13;100594.16;;;20.10;51.54
37298;BME280;30517;51.932;4.278;2022-09-09T02:41:55;100565.03;;;19.83;51.60
37298;BME280;30517;51.932;4.278;2022-09-09T02:44:36;100600.31;;;20.12;51.31
37298;BME280;30517;51.932;4.278;2022-09-09T02:47:30;100597.56;;;20.14;51.37
37298;BME280;30517;51.932;4.278;2022-09-09T02:50:27;100599.84;;;20.02;51.40
37298;BME280;30517;51.932;4.278;2022-09-09T02:53:16;100586.41;;;20.04;51.31
37298;BME280;30517;51.932;4.278;2022-09-09T02:56:04;100598.78;;;20.06;51.32
37298;BME280;30517;51.932;4.278;2022-09-09T02:58:46;100513.00;;;19.50;51.43
37298;BME280;30517;51.932;4.278;2022-09-09T03:01:28;100592.91;;;19.98;51.39
37298;BME280;30517;51.932;4.278;2022-09-09T03:04:08;100544.16;;;19.71;51.30
37298;BME280;30517;51.932;4.278;2022-09-09T03:06:49;100565.03;;;19.83;51.30
37298;BME280;30517;51.932;4.278;2022-09-09T03:09:30;100589.22;;;20.01;51.16
37298;BME280;30517;51.932;4.278;2022-09-09T03:12:13;100538.41;;;19.80;51.17
37298;BME280;30517;51.932;4.278;2022-09-09T03:14:53;100476.66;;;19.44;51.14
37298;BME280;30517;51.932;4.278;2022-09-09T03:17:34;100580.13;;;20.05;51.09
37298;BME280;30517;51.932;4.278;2022-09-09T03:20:15;100558.97;;;19.99;51.38
37298;BME280;30517;51.932;4.278;2022-09-09T03:22:56;100568.84;;;19.98;51.24
37298;BME280;30517;51.932;4.278;2022-09-09T03:25:37;100561.16;;;19.91;51.37
37298;BME280;30517;51.932;4.278;2022-09-09T03:28:18;100561.88;;;19.94;51.48
37298;BME280;30517;51.932;4.278;2022-09-09T03:31:01;100449.09;;;19.23;51.36
37298;BME280;30517;51.932;4.278;2022-09-09T03:33:42;100564.59;;;19.93;51.49
37298;BME280;30517;51.932;4.278;2022-09-09T03:36:23;100570.09;;;19.89;51.54
37298;BME280;30517;51.932;4.278;2022-09-09T03:39:06;100578.13;;;19.89;51.47
37298;BME280;30517;51.932;4.278;2022-09-09T03:41:47;100578.94;;;19.92;51.39
37298;BME280;30517;51.932;4.278;2022-09-09T03:44:28;100561.41;;;19.84;51.33
37298;BME280;30517;51.932;4.278;2022-09-09T03:47:09;100552.44;;;19.85;51.38
37298;BME280;30517;51.932;4.278;2022-09-09T03:49:49;100561.00;;;19.94;51.32
37298;BME280;30517;51.932;4.278;2022-09-09T03:52:30;100564.75;;;19.89;51.42
37298;BME280;30517;51.932;4.278;2022-09-09T03:55:11;100561.06;;;19.92;51.26
37298;BME280;30517;51.932;4.278;2022-09-09T03:57:52;100554.03;;;19.89;51.36
37298;BME280;30517;51.932;4.278;2022-09-09T04:00:32;100532.34;;;19.77;51.25
37298;BME280;30517;51.932;4.278;2022-09-09T04:03:13;100536.66;;;19.79;51.33
37298;BME280;30517;51.932;4.278;2022-09-09T04:05:56;100552.44;;;19.85;51.44
37298;BME280;30517;51.932;4.278;2022-09-09T04:08:38;100558.88;;;19.81;51.76
37298;BME280;30517;51.932;4.278;2022-09-09T04:11:19;100538.41;;;19.80;51.49
37298;BME280;30517;51.932;4.278;2022-09-09T04:14:00;100546.28;;;19.83;51.48
37298;BME280;30517;51.932;4.278;2022-09-09T04:16:41;100535.38;;;19.88;51.37
37298;BME280;30517;51.932;4.278;2022-09-09T04:19:24;100528.38;;;19.85;51.20
37298;BME280;30517;51.932;4.278;2022-09-09T04:22:05;100529.91;;;20.10;50.92
37298;BME280;30517;51.932;4.278;2022-09-09T04:24:46;100528.28;;;19.87;54.37
37298;BME280;30517;51.932;4.278;2022-09-09T04:27:27;100517.31;;;19.93;52.67
37298;BME280;30517;51.932;4.278;2022-09-09T04:30:08;100493.25;;;19.73;51.44
37298;BME280;30517;51.932;4.278;2022-09-09T04:32:49;100520.91;;;19.92;51.82
37298;BME280;30517;51.932;4.278;2022-09-09T04:35:30;100516.56;;;19.89;51.55
37298;BME280;30517;51.932;4.278;2022-09-09T04:38:11;100507.47;;;19.94;51.45
37298;BME280;30517;51.932;4.278;2022-09-09T04:40:52;100506.19;;;19.82;52.21
37298;BME280;30517;51.932;4.278;2022-09-09T04:43:34;100515.13;;;19.82;52.39
37298;BME280;30517;51.932;4.278;2022-09-09T04:46:15;100488.91;;;19.70;51.97
37298;BME280;30517;51.932;4.278;2022-09-09T04:48:57;100505.69;;;19.74;52.54
37298;BME280;30517;51.932;4.278;2022-09-09T04:51:38;100501.28;;;19.73;52.50
37298;BME280;30517;51.932;4.278;2022-09-09T04:54:19;100508.59;;;19.69;51.90
37298;BME280;30517;51.932;4.278;2022-09-09T04:56:59;100483.00;;;19.62;51.84
37298;BME280;30517;51.932;4.278;2022-09-09T04:59:40;100495.13;;;19.71;52.03
37298;BME280;30517;51.932;4.278;2022-09-09T05:02:21;100509.03;;;19.79;52.13
37298;BME280;30517;51.932;4.278;2022-09-09T05:05:02;100503.75;;;19.77;51.70
37298;BME280;30517;51.932;4.278;2022-09-09T05:07:43;100505.69;;;19.74;51.72
37298;BME280;30517;51.932;4.278;2022-09-09T05:10:24;100495.06;;;19.72;52.15
37298;BME280;30517;51.932;4.278;2022-09-09T05:13:05;100494.13;;;19.73;51.99
37298;BME280;30517;51.932;4.278;2022-09-09T05:15:53;100495.44;;;19.63;52.30
37298;BME280;30517;51.932;4.278;2022-09-09T05:18:34;100488.91;;;19.70;52.13
37298;BME280;30517;51.932;4.278;2022-09-09T05:21:17;100492.69;;;19.66;51.88
37298;BME280;30517;51.932;4.278;2022-09-09T05:23:57;100486.09;;;19.73;51.80
37298;BME280;30517;51.932;4.278;2022-09-09T05:26:40;100496.00;;;19.71;51.96
37298;BME280;30517;51.932;4.278;2022-09-09T05:29:21;100496.94;;;19.70;52.00
37298;BME280;30517;51.932;4.278;2022-09-09T05:32:02;100480.34;;;19.62;51.76
37298;BME280;30517;51.932;4.278;2022-09-09T05:34:43;100498.03;;;19.66;51.81
37298;BME280;30517;51.932;4.278;2022-09-09T05:37:24;100501.59;;;19.65;51.93
37298;BME280;30517;51.932;4.278;2022-09-09T05:40:05;100513.16;;;19.65;51.79
37298;BME280;30517;51.932;4.278;2022-09-09T05:42:46;100510.47;;;19.67;51.74
37298;BME280;30517;51.932;4.278;2022-09-09T05:45:27;100509.72;;;19.63;51.74
37298;BME280;30517;51.932;4.278;2022-09-09T05:48:08;100502.03;;;19.56;51.84
37298;BME280;30517;51.932;4.278;2022-09-09T05:50:53;100494.00;;;19.56;51.58
37298;BME280;30517;51.932;4.278;2022-09-09T05:53:34;100513.31;;;19.62;51.80
37298;BME280;30517;51.932;4.278;2022-09-09T05:56:20;100524.88;;;19.63;52.17
37298;BME280;30517;51.932;4.278;2022-09-09T05:59:02;100521.56;;;19.58;52.09
37298;BME280;30517;51.932;4.278;2022-09-09T06:01:43;100518.66;;;19.62;52.09
37298;BME280;30517;51.932;4.278;2022-09-09T06:04:25;100504.56;;;19.59;51.98
37298;BME280;30517;51.932;4.278;2022-09-09T06:07:06;100499.13;;;19.60;52.02
37298;BME280;30517;51.932;4.278;2022-09-09T06:09:47;100512.28;;;19.65;51.85
37298;BME280;30517;51.932;4.278;2022-09-09T06:12:27;100516.84;;;19.63;51.98
37298;BME280;30517;51.932;4.278;2022-09-09T06:15:08;100510.56;;;19.64;52.11
37298;BME280;30517;51.932;4.278;2022-09-09T06:17:54;100519.47;;;19.64;51.79
37298;BME280;30517;51.932;4.278;2022-09-09T06:20:35;100523.13;;;19.62;51.83
37298;BME280;30517;51.932;4.278;2022-09-09T06:23:16;100517.84;;;19.60;51.92
37298;BME280;30517;51.932;4.278;2022-09-09T06:26:12;100517.94;;;19.38;53.37
37298;BME280;30517;51.932;4.278;2022-09-09T06:28:54;100509.72;;;19.43;52.64
37298;BME280;30517;51.932;4.278;2022-09-09T06:31:37;100521.56;;;19.58;53.90
37298;BME280;30517;51.932;4.278;2022-09-09T06:34:18;100521.56;;;19.58;52.87
37298;BME280;30517;51.932;4.278;2022-09-09T06:36:59;100517.94;;;19.59;53.95
37298;BME280;30517;51.932;4.278;2022-09-09T06:39:40;100510.56;;;19.64;53.61
37298;BME280;30517;51.932;4.278;2022-09-09T06:42:21;100511.41;;;19.66;53.28
37298;BME280;30517;51.932;4.278;2022-09-09T06:45:02;100511.50;;;19.63;53.10
37298;BME280;30517;51.932;4.278;2022-09-09T06:47:43;100488.78;;;19.53;53.08
37298;BME280;30517;51.932;4.278;2022-09-09T06:50:24;100487.84;;;19.54;53.33
37298;BME280;30517;51.932;4.278;2022-09-09T06:53:05;100499.25;;;19.57;53.37
37298;BME280;30517;51.932;4.278;2022-09-09T06:55:46;100510.56;;;19.64;53.04
37298;BME280;30517;51.932;4.278;2022-09-09T06:58:27;100506.13;;;19.63;52.80
37298;BME280;30517;51.932;4.278;2022-09-09T07:01:09;100490.47;;;19.55;52.89
37298;BME280;30517;51.932;4.278;2022-09-09T07:03:51;100510.72;;;19.61;52.73
37298;BME280;30517;51.932;4.278;2022-09-09T07:06:41;100471.69;;;19.36;52.67
37298;BME280;30517;51.932;4.278;2022-09-09T07:09:23;100500.28;;;19.14;56.12
37298;BME280;30517;51.932;4.278;2022-09-09T07:12:04;100515.22;;;19.40;53.80
37298;BME280;30517;51.932;4.278;2022-09-09T07:14:46;100514.72;;;19.51;54.21
37298;BME280;30517;51.932;4.278;2022-09-09T07:17:27;100499.53;;;19.51;53.72
37298;BME280;30517;51.932;4.278;2022-09-09T07:20:09;100506.22;;;19.61;54.07
37298;BME280;30517;51.932;4.278;2022-09-09T07:22:49;100509.56;;;19.46;53.85
37298;BME280;30517;51.932;4.278;2022-09-09T07:25:30;100513.63;;;19.55;53.14
37298;BME280;30517;51.932;4.278;2022-09-09T07:28:11;100501.03;;;19.58;53.55
37298;BME280;30517;51.932;4.278;2022-09-09T07:30:59;100497.34;;;19.61;53.79
37298;BME280;30517;51.932;4.278;2022-09-09T07:33:43;100400.84;;;19.06;53.68
37298;BME280;30517;51.932;4.278;2022-09-09T07:36:30;100504.34;;;19.63;53.54
37298;BME280;30517;51.932;4.278;2022-09-09T07:39:12;100468.72;;;19.42;53.59
37298;BME280;30517;51.932;4.278;2022-09-09T07:41:53;100490.47;;;19.55;53.70
37298;BME280;30517;51.932;4.278;2022-09-09T07:44:34;100508.75;;;19.64;54.04
37298;BME280;30517;51.932;4.278;2022-09-09T07:47:16;100490.19;;;19.61;53.87
37298;BME280;30517;51.932;4.278;2022-09-09T07:49:57;100488.78;;;19.53;53.84
37298;BME280;30517;51.932;4.278;2022-09-09T07:52:38;100506.78;;;19.70;53.28
37298;BME280;30517;51.932;4.278;2022-09-09T07:55:20;100508.59;;;19.69;53.27
37298;BME280;30517;51.932;4.278;2022-09-09T07:58:04;100506.84;;;19.68;53.43
37298;BME280;30517;51.932;4.278;2022-09-09T08:00:44;100503.38;;;19.66;53.24
37298;BME280;30517;51.932;4.278;2022-09-09T08:03:25;100512.19;;;19.68;53.18
37298;BME280;30517;51.932;4.278;2022-09-09T08:06:08;100499.22;;;19.59;53.15
37298;BME280;30517;51.932;4.278;2022-09-09T08:08:53;100513.00;;;19.70;52.91
37298;BME280;30517;51.932;4.278;2022-09-09T08:11:35;100466.19;;;19.39;53.13
37298;BME280;30517;51.932;4.278;2022-09-09T08:14:16;100521.03;;;19.70;53.08
37298;BME280;30517;51.932;4.278;2022-09-09T08:16:57;100504.00;;;19.71;52.73
37298;BME280;30517;51.932;4.278;2022-09-09T08:19:39;100489.56;;;19.55;52.78
37298;BME280;30517;51.932;4.278;2022-09-09T08:22:20;100499.88;;;19.64;52.69
37298;BME280;30517;51.932;4.278;2022-09-09T08:25:02;100523.66;;;19.72;52.95
37298;BME280;30517;51.932;4.278;2022-09-09T08:27:46;100521.03;;;19.70;52.69
37298;BME280;30517;51.932;4.278;2022-09-09T08:30:27;100514.66;;;19.73;52.85
37298;BME280;30517;51.932;4.278;2022-09-09T08:33:08;100520.06;;;19.71;52.84
37298;BME280;30517;51.932;4.278;2022-09-09T08:35:50;100525.38;;;19.73;52.64
37298;BME280;30517;51.932;4.278;2022-09-09T08:38:32;100489.50;;;19.56;52.67
37298;BME280;30517;51.932;4.278;2022-09-09T08:44:38;100519.44;;;19.66;52.84
37298;BME280;30517;51.932;4.278;2022-09-09T08:48:00;100520.97;;;19.72;53.15
37298;BME280;30517;51.932;4.278;2022-09-09T08:50:36;100519.00;;;19.75;53.43
37298;BME280;30517;51.932;4.278;2022-09-09T08:53:29;100481.78;;;19.50;53.41
37298;BME280;30517;51.932;4.278;2022-09-09T08:56:19;100529.72;;;19.75;53.20
37298;BME280;30517;51.932;4.278;2022-09-09T08:59:03;100523.50;;;19.75;53.20
37298;BME280;30517;51.932;4.278;2022-09-09T09:05:02;100529.06;;;19.70;53.43
37298;BME280;30517;51.932;4.278;2022-09-09T09:11:05;100528.00;;;19.74;53.12
37298;BME280;30517;51.932;4.278;2022-09-09T09:16:39;100485.59;;;19.44;53.66
37298;BME280;30517;51.932;4.278;2022-09-09T09:19:22;100508.81;;;19.63;53.48
37298;BME280;30517;51.932;4.278;2022-09-09T09:27:59;100529.06;;;19.70;53.74
37298;BME280;30517;51.932;4.278;2022-09-09T09:30:45;100527.69;;;19.60;53.85
37298;BME280;30517;51.932;4.278;2022-09-09T09:33:48;100522.75;;;19.71;54.15
37298;BME280;30517;51.932;4.278;2022-09-09T09:36:39;100526.97;;;19.77;53.59
37298;BME280;30517;51.932;4.278;2022-09-09T09:39:33;100530.28;;;19.82;53.56
37298;BME280;30517;51.932;4.278;2022-09-09T09:42:19;100515.38;;;19.76;53.28
37298;BME280;30517;51.932;4.278;2022-09-09T09:45:28;100536.25;;;19.88;53.38
37298;BME280;30517;51.932;4.278;2022-09-09T09:48:12;100520.97;;;19.72;53.48
37298;BME280;30517;51.932;4.278;2022-09-09T09:50:55;100536.44;;;19.84;53.43
37298;BME280;30517;51.932;4.278;2022-09-09T09:53:37;100530.03;;;19.88;53.37
37298;BME280;30517;51.932;4.278;2022-09-09T09:56:27;100528.06;;;19.92;53.35
37298;BME280;30517;51.932;4.278;2022-09-09T10:02:22;100501.47;;;19.68;53.46
37298;BME280;30517;51.932;4.278;2022-09-09T10:05:16;100523.81;;;19.87;53.41
37298;BME280;30517;51.932;4.278;2022-09-09T10:08:10;100504.69;;;19.76;53.07
37298;BME280;30517;51.932;4.278;2022-09-09T10:17:10;100534.38;;;19.91;53.15
37298;BME280;30517;51.932;4.278;2022-09-09T10:22:51;100526.53;;;19.86;53.40
37298;BME280;30517;51.932;4.278;2022-09-09T10:25:38;100529.88;;;19.91;53.28
37298;BME280;30517;51.932;4.278;2022-09-09T10:32:12;100527.41;;;19.86;53.43
37298;BME280;30517;51.932;4.278;2022-09-09T10:34:56;100537.09;;;19.89;53.22
37298;BME280;30517;51.932;4.278;2022-09-09T10:38:11;100536.09;;;19.92;53.98
37298;BME280;30517;51.932;4.278;2022-09-09T10:43:56;100523.81;;;19.87;54.53
37298;BME280;30517;51.932;4.278;2022-09-09T10:46:56;100528.13;;;19.90;54.80
37298;BME280;30517;51.932;4.278;2022-09-09T10:55:45;100523.38;;;19.97;54.76
37298;BME280;30517;51.932;4.278;2022-09-09T10:58:36;100517.16;;;19.96;55.08
37298;BME280;30517;51.932;4.278;2022-09-09T11:01:25;100505.56;;;19.77;55.08
37298;BME280;30517;51.932;4.278;2022-09-09T11:04:16;100526.13;;;19.95;54.95
37298;BME280;30517;51.932;4.278;2022-09-09T11:06:58;100519.75;;;19.98;55.10
37298;BME280;30517;51.932;4.278;2022-09-09T11:09:49;100518.16;;;19.94;55.12
37298;BME280;30517;51.932;4.278;2022-09-09T11:12:35;100517.97;;;19.98;55.10
37298;BME280;30517;51.932;4.278;2022-09-09T11:15:25;100518.84;;;19.99;54.74
37298;BME280;30517;51.932;4.278;2022-09-09T11:18:13;100525.84;;;20.01;54.33
37298;BME280;30517;51.932;4.278;2022-09-09T11:21:01;100512.66;;;19.97;54.36
37298;BME280;30517;51.932;4.278;2022-09-09T11:23:54;100531.41;;;19.97;54.09
37298;BME280;30517;51.932;4.278;2022-09-09T11:26:48;100514.88;;;19.48;57.98
37298;BME280;30517;51.932;4.278;2022-09-09T11:29:54;100533.78;;;19.84;54.79
37298;BME280;30517;51.932;4.278;2022-09-09T11:33:08;100515.25;;;19.79;54.87
37298;BME280;30517;51.932;4.278;2022-09-09T11:38:53;100543.78;;;19.99;54.64
37298;BME280;30517;51.932;4.278;2022-09-09T11:41:37;100571.13;;;20.06;54.79
37298;BME280;30517;51.932;4.278;2022-09-09T11:44:29;100562.19;;;20.07;55.05
37298;BME280;30517;51.932;4.278;2022-09-09T11:47:37;100561.22;;;20.08;55.33
37298;BME280;30517;51.932;4.278;2022-09-09T11:56:09;100554.06;;;20.08;54.96
37298;BME280;30517;51.932;4.278;2022-09-09T11:59:04;100526.06;;;19.97;55.38
37298;BME280;30517;51.932;4.278;2022-09-09T12:01:50;100548.56;;;20.11;54.83
37298;BME280;30517;51.932;4.278;2022-09-09T12:04:38;100534.09;;;19.97;55.31
37298;BME280;30517;51.932;4.278;2022-09-09T12:07:30;100555.66;;;20.13;55.30
37298;BME280;30517;51.932;4.278;2022-09-09T12:10:31;100546.63;;;20.15;55.26
37298;BME280;30517;51.932;4.278;2022-09-09T12:13:18;100522.28;;;20.01;54.73
37298;BME280;30517;51.932;4.278;2022-09-09T12:16:00;100553.69;;;20.16;55.06
37298;BME280;30517;51.932;4.278;2022-09-09T12:18:42;100548.34;;;20.16;55.04
37298;BME280;30517;51.932;4.278;2022-09-09T12:24:18;100529.25;;;20.05;54.40
37298;BME280;30517;51.932;4.278;2022-09-09T12:27:24;100390.44;;;19.20;55.08
37298;BME280;30517;51.932;4.278;2022-09-09T12:30:15;100546.13;;;20.07;55.39
37298;BME280;30517;51.932;4.278;2022-09-09T12:33:12;100558.25;;;20.14;55.03
37298;BME280;30517;51.932;4.278;2022-09-09T12:35:57;100551.19;;;20.13;55.03
37298;BME280;30517;51.932;4.278;2022-09-09T12:38:41;100556.38;;;20.16;54.73
37298;BME280;30517;51.932;4.278;2022-09-09T12:41:27;100553.56;;;20.19;54.97
37298;BME280;30517;51.932;4.278;2022-09-09T12:44:10;100530.19;;;20.04;54.87
37298;BME280;30517;51.932;4.278;2022-09-09T12:46:51;100572.25;;;20.21;55.09
37298;BME280;30517;51.932;4.278;2022-09-09T12:49:38;100565.22;;;20.18;55.12
37298;BME280;30517;51.932;4.278;2022-09-09T12:52:29;100562.53;;;20.18;55.65
37298;BME280;30517;51.932;4.278;2022-09-09T12:55:18;100559.88;;;20.18;55.74
37298;BME280;30517;51.932;4.278;2022-09-09T12:58:01;100559.88;;;20.18;55.76
37298;BME280;30517;51.932;4.278;2022-09-09T13:00:53;100566.94;;;20.19;55.72
37298;BME280;30517;51.932;4.278;2022-09-09T13:03:42;100555.06;;;20.25;55.75
37298;BME280;30517;51.932;4.278;2022-09-09T13:06:29;100563.59;;;20.14;56.23
37298;BME280;30517;51.932;4.278;2022-09-09T13:09:10;100574.72;;;20.25;56.05
37298;BME280;30517;51.932;4.278;2022-09-09T13:11:54;100581.59;;;20.31;55.76
37298;BME280;30517;51.932;4.278;2022-09-09T13:14:36;100574.06;;;20.20;56.07
37298;BME280;30517;51.932;4.278;2022-09-09T13:17:25;100596.50;;;20.37;55.84
37298;BME280;30517;51.932;4.278;2022-09-09T13:20:17;100573.91;;;20.23;55.67
37298;BME280;30517;51.932;4.278;2022-09-09T13:22:58;100606.13;;;20.41;55.59
37298;BME280;30517;51.932;4.278;2022-09-09T13:25:40;100605.16;;;20.04;60.41
37298;BME280;30517;51.932;4.278;2022-09-09T13:28:23;100613.84;;;20.28;58.68
37298;BME280;30517;51.932;4.278;2022-09-09T13:31:18;100603.59;;;20.38;57.83
37298;BME280;30517;51.932;4.278;2022-09-09T13:34:10;100614.00;;;20.44;57.75
37298;BME280;30517;51.932;4.278;2022-09-09T13:36:59;100608.38;;;20.50;58.05
37298;BME280;30517;51.932;4.278;2022-09-09T13:39:51;100610.84;;;20.54;58.60
37298;BME280;30517;51.932;4.278;2022-09-09T13:42:41;100585.63;;;20.40;58.52
37298;BME280;30517;51.932;4.278;2022-09-09T13:45:25;100571.44;;;20.38;58.89
37298;BME280;30517;51.932;4.278;2022-09-09T13:48:10;100595.44;;;20.60;58.38
37298;BME280;30517;51.932;4.278;2022-09-09T13:54:19;100590.72;;;20.65;57.83
37298;BME280;30517;51.932;4.278;2022-09-09T13:56:59;100595.28;;;20.63;58.98
37298;BME280;30517;51.932;4.278;2022-09-09T13:59:41;100473.31;;;19.99;58.65
37298;BME280;30517;51.932;4.278;2022-09-09T14:02:22;100564.63;;;20.49;58.39
37298;BME280;30517;51.932;4.278;2022-09-09T14:05:04;100588.91;;;20.65;59.01
37298;BME280;30517;51.932;4.278;2022-09-09T14:07:45;100583.78;;;20.61;58.93
37298;BME280;30517;51.932;4.278;2022-09-09T14:10:26;100553.34;;;20.43;58.89
37298;BME280;30517;51.932;4.278;2022-09-09T14:13:07;100587.25;;;20.63;58.59
37298;BME280;30517;51.932;4.278;2022-09-09T14:15:48;100575.97;;;20.56;58.53
37298;BME280;30517;51.932;4.278;2022-09-09T14:18:30;100594.50;;;20.61;58.43
37298;BME280;30517;51.932;4.278;2022-09-09T14:21:11;100574.84;;;20.60;59.36
37298;BME280;30517;51.932;4.278;2022-09-09T14:23:52;100586.00;;;20.70;59.26
37298;BME280;30517;51.932;4.278;2022-09-09T14:26:33;100587.63;;;20.74;59.52
37298;BME280;30517;51.932;4.278;2022-09-09T14:29:14;100593.03;;;20.72;59.96
37298;BME280;30517;51.932;4.278;2022-09-09T14:31:55;100537.63;;;20.35;60.61
37298;BME280;30517;51.932;4.278;2022-09-09T14:34:35;100606.06;;;20.80;60.55
37298;BME280;30517;51.932;4.278;2022-09-09T14:37:17;100582.66;;;20.46;60.24
37298;BME280;30517;51.932;4.278;2022-09-09T14:39:58;100581.31;;;20.56;61.54
37298;BME280;30517;51.932;4.278;2022-09-09T14:42:39;100509.78;;;20.20;62.80
37298;BME280;30517;51.932;4.278;2022-09-09T14:45:20;100599.38;;;20.89;63.22
37298;BME280;30517;51.932;4.278;2022-09-09T14:48:01;100607.13;;;20.95;63.40
37298;BME280;30517;51.932;4.278;2022-09-09T14:50:42;100604.94;;;21.03;63.30
37298;BME280;30517;51.932;4.278;2022-09-09T14:53:23;100603.00;;;21.07;63.35
37298;BME280;30517;51.932;4.278;2022-09-09T14:56:10;100609.91;;;21.11;63.75
37298;BME280;30517;51.932;4.278;2022-09-09T14:58:56;100612.22;;;21.18;63.35
37298;BME280;30517;51.932;4.278;2022-09-09T15:01:37;100604.81;;;21.24;63.37
37298;BME280;30517;51.932;4.278;2022-09-09T15:04:18;100596.19;;;21.17;62.89
37298;BME280;30517;51.932;4.278;2022-09-09T15:06:59;100614.91;;;21.36;62.19
37298;BME280;30517;51.932;4.278;2022-09-09T15:09:40;100624.91;;;21.51;61.88
37298;BME280;30517;51.932;4.278;2022-09-09T15:12:21;100619.22;;;21.57;61.48
37298;BME280;30517;51.932;4.278;2022-09-09T15:15:02;100619.00;;;21.62;61.14
37298;BME280;30517;51.932;4.278;2022-09-09T15:17:43;100601.72;;;21.50;60.96
37298;BME280;30517;51.932;4.278;2022-09-09T15:20:24;100611.97;;;21.59;61.13
37298;BME280;30517;51.932;4.278;2022-09-09T15:23:05;100609.09;;;21.62;61.05
37298;BME280;30517;51.932;4.278;2022-09-09T15:25:53;100620.47;;;21.68;61.43
37298;BME280;30517;51.932;4.278;2022-09-09T15:28:37;100606.75;;;21.56;61.18
37298;BME280;30517;51.932;4.278;2022-09-09T15:31:27;100634.69;;;21.70;61.01
37298;BME280;30517;51.932;4.278;2022-09-09T15:34:08;100567.56;;;21.35;60.71
37298;BME280;30517;51.932;4.278;2022-09-09T15:36:49;100617.63;;;21.71;60.71
37298;BME280;30517;51.932;4.278;2022-09-09T15:39:30;100625.53;;;21.74;60.64
37298;BME280;30517;51.932;4.278;2022-09-09T15:42:10;100624.50;;;21.76;60.63
37298;BME280;30517;51.932;4.278;2022-09-09T15:44:51;100629.00;;;21.76;60.18
37298;BME280;30517;51.932;4.278;2022-09-09T15:47:32;100621.91;;;21.75;60.25